createdAt,value
2023-04-17T00:00:08.353Z,99.90
2023-04-17T00:02:39.848Z,99.90
2023-04-17T00:05:10.136Z,99.90
2023-04-17T00:07:39.405Z,99.90
2023-04-17T00:10:10.107Z,99.90
2023-04-17T00:12:37.046Z,99.90
2023-04-17T00:15:06.304Z,99.90
2023-04-17T00:17:33.077Z,99.90
2023-04-17T00:19:59.800Z,99.90
2023-04-17T00:22:26.572Z,99.90
2023-04-17T00:24:55.770Z,99.90
2023-04-17T00:27:24.650Z,99.90
2023-04-17T00:29:53.783Z,99.90
2023-04-17T00:32:20.456Z,99.90
2023-04-17T00:34:47.196Z,99.90
2023-04-17T00:37:13.961Z,99.90
2023-04-17T00:39:45.338Z,99.90
2023-04-17T00:42:14.365Z,99.90
2023-04-17T00:44:43.213Z,99.90
2023-04-17T00:47:09.975Z,99.90
2023-04-17T00:52:06.330Z,99.90
2023-04-17T00:54:35.478Z,99.90
2023-04-17T00:57:05.321Z,99.90
2023-04-17T00:59:32.771Z,99.90
2023-04-17T01:02:00.140Z,99.90
2023-04-17T01:04:27.419Z,99.90
2023-04-17T01:06:56.750Z,99.90
2023-04-17T01:09:23.427Z,99.90
2023-04-17T01:11:50.069Z,99.90
2023-04-17T01:14:16.793Z,99.90
2023-04-17T01:16:46.062Z,99.90
2023-04-17T01:19:14.508Z,99.90
2023-04-17T01:21:43.570Z,99.90
2023-04-17T01:24:10.827Z,99.90
2023-04-17T01:26:41.447Z,99.90
2023-04-17T01:29:08.240Z,99.90
2023-04-17T01:31:39.290Z,99.90
2023-04-17T01:34:10.709Z,99.90
2023-04-17T01:36:37.445Z,99.90
2023-04-17T01:39:04.268Z,99.90
2023-04-17T01:41:31.261Z,99.90
2023-04-17T01:43:58.000Z,99.90
2023-04-17T01:46:24.837Z,99.90
2023-04-17T01:48:52.749Z,99.90
2023-04-17T01:51:19.451Z,99.90
2023-04-17T01:53:46.119Z,99.90
2023-04-17T01:56:18.005Z,99.90
2023-04-17T01:58:44.738Z,99.90
2023-04-17T02:01:11.582Z,99.90
2023-04-17T02:03:38.391Z,99.90
2023-04-17T02:06:07.737Z,99.90
2023-04-17T02:08:34.555Z,99.90
2023-04-17T02:11:03.926Z,99.90
2023-04-17T02:13:30.806Z,99.90
2023-04-17T02:15:57.668Z,99.90
2023-04-17T02:18:28.820Z,99.90
2023-04-17T02:20:57.645Z,99.90
2023-04-17T02:23:24.367Z,99.90
2023-04-17T02:25:51.586Z,99.90
2023-04-17T02:28:22.867Z,99.90
2023-04-17T02:30:51.712Z,99.90
2023-04-17T02:33:18.357Z,99.90
2023-04-17T02:35:47.405Z,99.90
2023-04-17T02:38:16.944Z,99.90
2023-04-17T02:40:43.652Z,99.90
2023-04-17T02:43:10.429Z,99.90
2023-04-17T02:45:39.419Z,99.90
2023-04-17T02:48:06.481Z,99.90
2023-04-17T02:50:33.292Z,99.90
2023-04-17T02:53:00.018Z,99.90
2023-04-17T02:55:27.056Z,99.90
2023-04-17T02:57:53.805Z,99.90
2023-04-17T03:00:20.796Z,99.90
2023-04-17T03:02:50.187Z,99.90
2023-04-17T03:05:23.328Z,99.90
2023-04-17T03:07:52.890Z,99.90
2023-04-17T03:10:19.564Z,99.90
2023-04-17T03:12:46.399Z,99.90
2023-04-17T03:15:13.217Z,99.90
2023-04-17T03:17:42.742Z,99.90
2023-04-17T03:20:09.575Z,99.90
2023-04-17T03:22:36.744Z,99.90
2023-04-17T03:25:04.458Z,99.90
2023-04-17T03:27:31.549Z,99.90
2023-04-17T03:30:02.709Z,99.90
2023-04-17T03:32:29.400Z,99.90
2023-04-17T03:34:56.085Z,99.90
2023-04-17T03:37:27.380Z,99.90
2023-04-17T03:39:56.596Z,99.90
2023-04-17T03:42:26.793Z,99.90
2023-04-17T03:44:56.089Z,99.90
2023-04-17T03:47:22.800Z,99.90
2023-04-17T03:49:51.990Z,99.90
2023-04-17T03:52:18.698Z,99.90
2023-04-17T03:54:45.680Z,99.90
2023-04-17T03:57:14.465Z,99.90
2023-04-17T03:59:41.958Z,99.90
2023-04-17T04:02:08.710Z,99.90
2023-04-17T04:04:38.170Z,99.90
2023-04-17T04:07:05.138Z,99.90
2023-04-17T04:09:34.040Z,99.90
2023-04-17T04:14:32.954Z,99.90
2023-04-17T04:16:59.645Z,99.90
2023-04-17T04:19:28.901Z,99.90
2023-04-17T04:21:55.654Z,99.90
2023-04-17T04:24:22.364Z,99.90
2023-04-17T04:26:51.723Z,99.90
2023-04-17T04:29:25.531Z,99.90
2023-04-17T04:31:52.341Z,99.90
2023-04-17T04:34:21.711Z,99.90
2023-04-17T04:36:51.113Z,99.90
2023-04-17T04:39:20.903Z,99.90
2023-04-17T04:41:53.401Z,99.90
2023-04-17T04:44:22.612Z,99.90
2023-04-17T04:46:49.299Z,99.90
2023-04-17T04:49:18.390Z,99.90
2023-04-17T04:51:47.779Z,99.90
2023-04-17T04:54:14.458Z,99.90
2023-04-17T04:56:44.778Z,99.90
2023-04-17T04:59:12.149Z,99.90
2023-04-17T05:01:41.397Z,99.90
2023-04-17T05:04:08.274Z,99.90
2023-04-17T05:06:35.203Z,99.90
2023-04-17T05:09:01.843Z,99.90
2023-04-17T05:11:28.794Z,99.90
2023-04-17T05:13:55.427Z,99.90
2023-04-17T05:16:22.368Z,99.90
2023-04-17T05:18:51.344Z,99.90
2023-04-17T05:21:20.505Z,99.90
2023-04-17T05:23:49.401Z,99.90
2023-04-17T05:26:16.330Z,99.90
2023-04-17T05:28:45.100Z,99.90
2023-04-17T05:31:14.448Z,99.90
2023-04-17T05:33:41.096Z,99.90
2023-04-17T05:36:12.929Z,99.90
2023-04-17T05:38:39.612Z,99.90
2023-04-17T05:41:11.305Z,99.90
2023-04-17T05:43:40.832Z,99.90
2023-04-17T05:46:07.580Z,99.90
2023-04-17T05:48:34.432Z,99.90
2023-04-17T05:51:01.267Z,99.90
2023-04-17T05:55:57.104Z,99.90
2023-04-17T05:58:24.597Z,99.90
2023-04-17T06:00:52.376Z,99.90
2023-04-17T06:03:21.784Z,99.90
2023-04-17T06:05:51.929Z,99.90
2023-04-17T06:08:21.532Z,99.90
2023-04-17T06:10:50.159Z,99.90
2023-04-17T06:13:21.643Z,99.90
2023-04-17T06:15:51.494Z,99.90
2023-04-17T06:18:18.261Z,99.90
2023-04-17T06:20:48.205Z,99.90
2023-04-17T06:23:17.064Z,99.90
2023-04-17T06:25:43.729Z,99.90
2023-04-17T06:28:10.627Z,99.90
2023-04-17T06:30:39.761Z,99.90
2023-04-17T06:33:08.918Z,99.90
2023-04-17T06:35:36.588Z,99.90
2023-04-17T06:38:03.271Z,99.90
2023-04-17T06:40:29.914Z,99.90
2023-04-17T06:42:59.128Z,99.90
2023-04-17T06:45:25.948Z,99.90
2023-04-17T06:47:52.580Z,99.90
2023-04-17T06:50:21.758Z,99.90
2023-04-17T06:52:48.511Z,99.90
2023-04-17T06:55:15.365Z,99.90
2023-04-17T06:57:42.095Z,99.90
2023-04-17T07:00:11.791Z,99.90
2023-04-17T07:02:45.795Z,99.90
2023-04-17T07:05:13.212Z,99.90
2023-04-17T07:07:41.083Z,99.90
2023-04-17T07:10:08.150Z,99.90
2023-04-17T07:12:34.883Z,99.90
2023-04-17T07:15:01.954Z,99.90
2023-04-17T07:17:31.324Z,99.90
2023-04-17T07:19:58.096Z,99.90
2023-04-17T07:22:27.564Z,99.90
2023-04-17T07:24:54.396Z,99.90
2023-04-17T07:27:21.897Z,99.90
2023-04-17T07:29:54.374Z,99.90
2023-04-17T07:32:24.466Z,99.90
2023-04-17T07:34:51.507Z,99.90
2023-04-17T07:37:18.234Z,99.90
2023-04-17T07:39:48.112Z,99.90
2023-04-17T07:42:16.542Z,99.90
2023-04-17T07:44:45.557Z,99.90
2023-04-17T07:47:12.385Z,99.90
2023-04-17T07:49:41.739Z,99.90
2023-04-17T07:52:08.807Z,99.90
2023-04-17T07:54:37.740Z,99.90
2023-04-17T07:57:08.250Z,99.90
2023-04-17T07:59:36.817Z,99.90
2023-04-17T08:02:03.862Z,99.90
2023-04-17T08:04:33.467Z,99.90
2023-04-17T08:07:00.437Z,99.90
2023-04-17T08:09:31.833Z,99.90
2023-04-17T08:11:58.609Z,99.90
2023-04-17T08:14:25.622Z,99.90
2023-04-17T08:16:55.074Z,99.90
2023-04-17T08:19:21.769Z,99.90
2023-04-17T08:21:49.472Z,99.90
2023-04-17T08:24:19.136Z,99.90
2023-04-17T08:26:46.758Z,99.90
2023-04-17T08:29:16.176Z,99.90
2023-04-17T08:31:42.940Z,99.90
2023-04-17T08:34:14.783Z,99.90
2023-04-17T08:36:43.251Z,99.90
2023-04-17T08:39:12.363Z,99.90
2023-04-17T08:41:54.263Z,99.90
2023-04-17T08:44:23.735Z,99.90
2023-04-17T08:46:51.590Z,99.90
2023-04-17T08:49:21.186Z,99.90
2023-04-17T08:51:47.888Z,99.90
2023-04-17T08:54:14.653Z,99.90
2023-04-17T08:56:43.947Z,99.90
2023-04-17T09:01:38.336Z,99.90
2023-04-17T09:04:05.451Z,99.90
2023-04-17T09:06:54.430Z,99.90
2023-04-17T09:12:09.920Z,99.90
2023-04-17T09:14:43.671Z,99.90
2023-04-17T09:17:10.479Z,99.90
2023-04-17T09:19:37.377Z,99.90
2023-04-17T09:22:22.807Z,99.90
2023-04-17T09:24:52.824Z,99.90
2023-04-17T09:27:29.502Z,99.90
2023-04-17T09:30:03.884Z,99.90
2023-04-17T09:32:32.504Z,99.90
2023-04-17T09:35:01.498Z,99.90
2023-04-17T09:37:49.310Z,99.90
2023-04-17T09:40:16.756Z,99.90
2023-04-17T09:42:57.050Z,99.90
2023-04-17T09:45:25.126Z,99.90
2023-04-17T09:47:56.198Z,99.90
2023-04-17T09:50:24.884Z,99.90
2023-04-17T09:52:56.323Z,99.90
2023-04-17T09:55:24.861Z,99.90
2023-04-17T09:58:01.170Z,99.90
2023-04-17T10:00:30.985Z,99.90
2023-04-17T10:03:02.536Z,99.90
2023-04-17T10:05:32.521Z,99.90
2023-04-17T10:07:59.701Z,99.90
2023-04-17T10:10:33.683Z,99.90
2023-04-17T10:13:03.384Z,99.90
2023-04-17T10:15:33.952Z,99.90
2023-04-17T10:18:25.236Z,99.90
2023-04-17T10:20:56.107Z,99.90
2023-04-17T10:23:36.451Z,99.90
2023-04-17T10:33:54.046Z,99.90
2023-04-17T10:39:18.619Z,99.90
2023-04-17T10:42:04.556Z,99.90
2023-04-17T10:44:35.245Z,99.90
2023-04-17T10:47:09.986Z,99.90
2023-04-17T10:49:51.143Z,99.90
2023-04-17T10:52:33.324Z,99.90
2023-04-17T10:55:22.979Z,99.90
2023-04-17T10:57:55.848Z,99.90
2023-04-17T11:00:33.317Z,99.90
2023-04-17T11:03:01.952Z,99.90
2023-04-17T11:05:30.245Z,99.90
2023-04-17T11:07:58.035Z,99.90
2023-04-17T11:10:25.068Z,99.90
2023-04-17T11:12:54.040Z,99.90
2023-04-17T11:15:31.587Z,99.90
2023-04-17T11:18:02.250Z,99.90
2023-04-17T11:20:33.322Z,99.90
2023-04-17T11:23:04.499Z,99.90
2023-04-17T11:25:34.910Z,99.90
2023-04-17T11:28:05.309Z,99.90
2023-04-17T11:30:36.664Z,99.90
2023-04-17T11:33:07.910Z,99.90
2023-04-17T11:35:37.683Z,99.90
2023-04-17T11:38:06.079Z,99.90
2023-04-17T11:40:35.357Z,99.90
2023-04-17T11:43:10.742Z,99.90
2023-04-17T11:45:40.446Z,99.90
2023-04-17T11:48:12.173Z,99.90
2023-04-17T11:50:43.649Z,99.90
2023-04-17T11:53:16.289Z,99.90
2023-04-17T11:58:14.378Z,96.10
2023-04-17T12:00:43.697Z,96.10
2023-04-17T12:03:35.991Z,95.50
2023-04-17T12:06:05.223Z,95.20
2023-04-17T12:09:02.058Z,95.70
2023-04-17T12:13:56.641Z,96.30
2023-04-17T12:16:27.430Z,96.40
2023-04-17T12:18:59.060Z,97.90
2023-04-17T12:21:25.878Z,98.70
2023-04-17T12:23:57.108Z,98.80
2023-04-17T12:26:25.216Z,99.20
2023-04-17T12:28:52.187Z,99.90
2023-04-17T12:31:18.910Z,99.90
2023-04-17T12:33:47.905Z,99.90
2023-04-17T12:36:14.768Z,99.90
2023-04-17T12:38:43.111Z,99.90
2023-04-17T12:41:10.301Z,99.90
2023-04-17T12:43:36.958Z,99.90
2023-04-17T12:46:03.668Z,99.90
2023-04-17T12:48:32.695Z,99.90
2023-04-17T12:50:59.811Z,99.90
2023-04-17T12:53:26.462Z,99.90
2023-04-17T12:55:53.240Z,99.90
2023-04-17T12:58:22.183Z,99.90
2023-04-17T13:00:48.902Z,99.90
2023-04-17T13:03:15.734Z,99.90
2023-04-17T13:05:42.957Z,99.90
2023-04-17T13:08:14.718Z,99.90
2023-04-17T13:10:42.584Z,99.90
2023-04-17T13:13:09.394Z,99.80
2023-04-17T13:15:41.158Z,99.70
2023-04-17T13:18:08.249Z,99.30
2023-04-17T13:20:35.178Z,99.20
2023-04-17T13:23:06.561Z,98.70
2023-04-17T13:25:35.564Z,98.70
2023-04-17T13:28:04.702Z,98.70
2023-04-17T13:30:37.265Z,98.20
2023-04-17T13:33:04.319Z,99.30
2023-04-17T13:35:31.376Z,99.40
2023-04-17T13:38:02.214Z,99.70
2023-04-17T13:40:29.986Z,99.90
2023-04-17T13:42:58.884Z,99.50
2023-04-17T13:45:25.696Z,99.90
2023-04-17T13:47:52.524Z,99.90
2023-04-17T13:50:19.518Z,99.40
2023-04-17T13:52:46.325Z,99.70
2023-04-17T13:55:14.658Z,99.50
2023-04-17T13:57:41.435Z,99.90
2023-04-17T14:00:11.232Z,99.90
2023-04-17T14:02:38.213Z,99.90
2023-04-17T14:05:07.593Z,99.90
2023-04-17T14:07:34.325Z,99.40
2023-04-17T14:10:00.987Z,99.70
2023-04-17T14:12:27.866Z,99.90
2023-04-17T14:14:56.039Z,99.90
2023-04-17T14:17:26.749Z,99.90
2023-04-17T14:19:53.776Z,99.90
2023-04-17T14:22:20.468Z,99.90
2023-04-17T14:27:18.960Z,99.90
2023-04-17T14:29:45.663Z,99.90
2023-04-17T14:32:14.872Z,99.90
2023-04-17T14:34:41.566Z,99.90
2023-04-17T14:37:08.329Z,99.90
2023-04-17T14:39:35.158Z,99.90
2023-04-17T14:42:04.416Z,99.90
2023-04-17T14:44:33.350Z,99.90
2023-04-17T14:47:03.036Z,99.90
2023-04-17T14:49:34.501Z,99.90
2023-04-17T14:52:03.494Z,99.90
2023-04-17T14:54:30.306Z,99.90
2023-04-17T14:56:58.097Z,99.90
2023-04-17T14:59:27.000Z,99.90
2023-04-17T15:01:56.206Z,99.90
2023-04-17T15:04:26.106Z,99.90
2023-04-17T15:09:19.927Z,99.30
2023-04-17T15:11:47.363Z,99.20
2023-04-17T15:14:14.138Z,98.90
2023-04-17T15:19:10.510Z,98.60
2023-04-17T15:21:39.541Z,98.90
2023-04-17T15:24:08.739Z,99.30
2023-04-17T15:26:35.551Z,98.70
2023-04-17T15:29:03.065Z,98.20
2023-04-17T15:31:32.313Z,98.10
2023-04-17T15:33:59.080Z,98.40
2023-04-17T15:36:33.820Z,98.40
2023-04-17T15:39:05.371Z,98.00
2023-04-17T15:41:32.068Z,97.80
2023-04-17T15:43:58.790Z,97.70
2023-04-17T15:46:25.608Z,97.60
2023-04-17T15:49:07.690Z,97.80
2023-04-17T15:51:39.608Z,97.90
2023-04-17T15:54:11.627Z,98.10
2023-04-17T15:56:39.197Z,98.30
2023-04-17T15:59:08.484Z,97.90
2023-04-17T16:01:35.460Z,98.30
2023-04-17T16:06:29.591Z,98.10
2023-04-17T16:08:56.300Z,98.30
2023-04-17T16:11:25.611Z,98.50
2023-04-17T16:13:52.556Z,98.50
2023-04-17T16:16:19.284Z,98.10
2023-04-17T16:18:49.003Z,98.40
2023-04-17T16:21:15.790Z,98.90
2023-04-17T16:23:48.712Z,99.10
2023-04-17T16:26:15.688Z,98.80
2023-04-17T16:28:43.128Z,99.00
2023-04-17T16:31:11.155Z,99.40
2023-04-17T16:33:39.658Z,99.40
2023-04-17T16:36:06.567Z,99.90
2023-04-17T16:38:35.378Z,99.90
2023-04-17T16:41:04.634Z,99.90
2023-04-17T16:43:31.453Z,99.90
2023-04-17T16:45:58.521Z,99.90
2023-04-17T16:48:26.471Z,99.90
2023-04-17T16:53:22.535Z,99.90
2023-04-17T16:55:51.417Z,99.90
2023-04-17T17:00:45.330Z,99.90
2023-04-17T17:03:14.228Z,99.90
2023-04-17T17:05:45.607Z,99.90
2023-04-17T17:08:13.301Z,99.90
2023-04-17T17:13:09.974Z,99.90
2023-04-17T17:18:06.299Z,99.90
2023-04-17T17:20:33.171Z,99.90
2023-04-17T17:23:00.059Z,99.90
2023-04-17T17:25:26.818Z,99.90
2023-04-17T17:27:58.482Z,99.90
2023-04-17T17:30:25.329Z,99.90
2023-04-17T17:32:52.362Z,99.90
2023-04-17T17:35:23.644Z,99.90
2023-04-17T17:37:50.452Z,99.90
2023-04-17T17:40:17.410Z,99.90
2023-04-17T17:42:48.601Z,99.90
2023-04-17T17:45:17.745Z,99.90
2023-04-17T17:47:44.749Z,99.90
2023-04-17T17:50:11.588Z,99.90
2023-04-17T17:52:40.675Z,99.90
2023-04-17T17:55:07.711Z,99.90
2023-04-17T17:57:45.998Z,99.90
2023-04-17T18:00:16.125Z,99.90
2023-04-17T18:02:42.999Z,99.90
2023-04-17T18:05:09.915Z,99.90
2023-04-17T18:07:41.033Z,99.90
2023-04-17T18:10:08.302Z,99.90
2023-04-17T18:12:35.078Z,99.90
2023-04-17T18:15:04.547Z,99.90
2023-04-17T18:17:32.538Z,99.90
2023-04-17T18:19:59.242Z,99.90
2023-04-17T18:22:26.048Z,99.90
2023-04-17T18:24:55.594Z,99.90
2023-04-17T18:27:24.762Z,99.90
2023-04-17T18:29:54.056Z,99.90
2023-04-17T18:32:20.979Z,99.90
2023-04-17T18:34:51.318Z,99.90
2023-04-17T18:37:18.359Z,99.90
2023-04-17T18:39:45.447Z,99.90
2023-04-17T18:42:14.553Z,99.90
2023-04-17T18:44:41.943Z,99.90
2023-04-17T18:47:13.324Z,99.90
2023-04-17T18:49:40.202Z,99.90
2023-04-17T18:52:09.135Z,99.90
2023-04-17T18:54:40.653Z,99.90
2023-04-17T18:57:07.373Z,99.90
2023-04-17T18:59:38.715Z,99.90
2023-04-17T19:02:10.285Z,99.90
2023-04-17T19:04:37.183Z,99.90
2023-04-17T19:07:06.413Z,99.90
2023-04-17T19:09:33.086Z,99.90
2023-04-17T19:11:59.817Z,99.90
2023-04-17T19:14:26.585Z,99.90
2023-04-17T19:16:55.472Z,99.90
2023-04-17T19:19:26.849Z,99.90
2023-04-17T19:21:53.549Z,99.90
2023-04-17T19:24:22.444Z,99.90
2023-04-17T19:26:51.716Z,99.90
2023-04-17T19:29:18.493Z,99.90
2023-04-17T19:31:45.565Z,99.90
2023-04-17T19:34:12.346Z,99.90
2023-04-17T19:36:44.159Z,99.90
2023-04-17T19:39:11.137Z,99.90
2023-04-17T19:41:37.956Z,99.90
2023-04-17T19:44:04.830Z,99.90
2023-04-17T19:46:33.979Z,99.90
2023-04-17T19:49:00.667Z,99.90
2023-04-17T19:51:27.907Z,99.90
2023-04-17T19:53:54.786Z,99.90
2023-04-17T19:56:21.599Z,99.90
2023-04-17T19:58:48.391Z,99.90
2023-04-17T20:01:15.389Z,99.90
2023-04-17T20:03:43.770Z,99.90
2023-04-17T20:06:10.977Z,99.90
2023-04-17T20:08:40.224Z,99.90
2023-04-17T20:11:12.140Z,99.90
2023-04-17T20:13:39.267Z,99.90
2023-04-17T20:16:06.399Z,99.90
2023-04-17T20:18:37.258Z,99.90
2023-04-17T20:21:07.200Z,99.90
2023-04-17T20:23:34.025Z,99.90
2023-04-17T20:26:00.685Z,99.90
2023-04-17T20:28:29.038Z,99.90
2023-04-17T20:30:56.234Z,99.90
2023-04-17T20:33:22.989Z,99.90
2023-04-17T20:35:49.818Z,99.90
2023-04-17T20:38:16.915Z,99.90
2023-04-17T20:40:43.862Z,99.90
2023-04-17T20:43:13.138Z,99.90
2023-04-17T20:45:40.304Z,99.90
2023-04-17T20:48:07.131Z,99.90
2023-04-17T20:50:33.950Z,99.90
2023-04-17T20:53:00.815Z,99.90
2023-04-17T20:55:27.775Z,99.90
2023-04-17T20:58:20.716Z,99.90
2023-04-17T21:01:00.783Z,99.90
2023-04-17T21:03:33.025Z,99.90
2023-04-17T21:06:00.501Z,99.90
2023-04-17T21:08:29.465Z,99.90
2023-04-17T21:10:56.365Z,99.90
2023-04-17T21:13:25.364Z,99.90
2023-04-17T21:18:27.821Z,99.90
2023-04-17T21:20:54.537Z,99.90
2023-04-17T21:23:21.376Z,99.90
2023-04-17T21:25:53.592Z,99.90
2023-04-17T21:28:22.872Z,99.90
2023-04-17T21:30:49.835Z,99.90
2023-04-17T21:33:16.764Z,99.90
2023-04-17T21:35:43.554Z,99.90
2023-04-17T21:38:10.346Z,99.90
2023-04-17T21:40:50.560Z,99.90
2023-04-17T21:43:18.339Z,99.90
2023-04-17T21:45:45.193Z,99.90
2023-04-17T21:48:14.325Z,99.90
2023-04-17T21:50:41.614Z,99.90
2023-04-17T21:53:11.055Z,99.90
2023-04-17T21:55:38.393Z,99.90
2023-04-17T21:58:07.599Z,99.90
2023-04-17T22:00:34.424Z,99.90
2023-04-17T22:03:01.404Z,99.90
2023-04-17T22:05:30.388Z,99.90
2023-04-17T22:07:57.198Z,99.90
2023-04-17T22:10:26.880Z,99.90
2023-04-17T22:12:56.118Z,99.90
2023-04-17T22:15:26.127Z,99.90
2023-04-17T22:17:55.491Z,99.90
2023-04-17T22:20:22.294Z,99.90
2023-04-17T22:22:51.511Z,99.90
2023-04-17T22:25:18.323Z,99.90
2023-04-17T22:27:44.990Z,99.90
2023-04-17T22:30:11.988Z,99.90
2023-04-17T22:32:38.913Z,99.90
2023-04-17T22:35:06.679Z,99.90
2023-04-17T22:37:33.548Z,99.90
2023-04-17T22:40:00.308Z,99.90
2023-04-17T22:42:27.126Z,99.90
2023-04-17T22:44:53.901Z,99.90
2023-04-17T22:47:21.921Z,99.90
2023-04-17T22:49:48.830Z,99.90
2023-04-17T22:52:15.619Z,99.90
2023-04-17T22:54:42.354Z,99.90
2023-04-17T22:57:10.659Z,99.90
2023-04-17T22:59:40.038Z,99.90
2023-04-17T23:02:06.928Z,99.90
2023-04-17T23:04:33.952Z,99.90
2023-04-17T23:07:01.153Z,99.90
2023-04-17T23:09:30.075Z,99.90
2023-04-17T23:14:28.406Z,99.90
2023-04-17T23:16:55.222Z,99.90
2023-04-17T23:19:22.537Z,99.90
2023-04-17T23:21:49.366Z,99.90
2023-04-17T23:24:16.132Z,99.90
2023-04-17T23:26:42.984Z,99.90
2023-04-17T23:29:09.726Z,99.90
2023-04-17T23:31:42.832Z,99.90
2023-04-17T23:34:09.693Z,99.90
2023-04-17T23:36:36.440Z,99.90
2023-04-17T23:39:05.185Z,99.90
2023-04-17T23:41:33.806Z,99.90
2023-04-17T23:44:00.590Z,99.90
2023-04-17T23:46:27.371Z,99.90
2023-04-17T23:48:54.100Z,99.90
2023-04-17T23:51:26.171Z,99.90
2023-04-17T23:53:53.078Z,99.90
2023-04-17T23:56:22.482Z,99.90
2023-04-17T23:58:49.253Z,99.90
